sensor_id;sensor_type;location;lat;lon;timestamp;P1;durP1;ratioP1;P2;durP2;ratioP2
71947;SDS011;63257;55.082;38.772;2023-06-19T00:00:21;7.03;;;3.23;;
71947;SDS011;63257;55.082;38.772;2023-06-19T00:02:47;7.15;;;3.10;;
71947;SDS011;63257;55.082;38.772;2023-06-19T00:05:13;7.50;;;3.50;;
71947;SDS011;63257;55.082;38.772;2023-06-19T00:07:39;7.93;;;3.00;;
71947;SDS011;63257;55.082;38.772;2023-06-19T00:10:05;7.10;;;3.20;;
71947;SDS011;63257;55.082;38.772;2023-06-19T00:12:32;7.00;;;2.90;;
71947;SDS011;63257;55.082;38.772;2023-06-19T00:14:58;7.57;;;3.20;;
71947;SDS011;63257;55.082;38.772;2023-06-19T00:17:23;7.67;;;3.20;;
71947;SDS011;63257;55.082;38.772;2023-06-19T00:19:52;6.85;;;3.67;;
71947;SDS011;63257;55.082;38.772;2023-06-19T00:22:18;7.85;;;3.28;;
71947;SDS011;63257;55.082;38.772;2023-06-19T00:24:43;7.20;;;3.00;;
71947;SDS011;63257;55.082;38.772;2023-06-19T00:27:09;7.00;;;3.40;;
71947;SDS011;63257;55.082;38.772;2023-06-19T00:29:35;7.30;;;3.50;;
71947;SDS011;63257;55.082;38.772;2023-06-19T00:32:01;6.38;;;3.20;;
71947;SDS011;63257;55.082;38.772;2023-06-19T00:34:28;7.25;;;3.22;;
71947;SDS011;63257;55.082;38.772;2023-06-19T00:36:55;6.20;;;3.20;;
71947;SDS011;63257;55.082;38.772;2023-06-19T00:39:23;7.45;;;3.35;;
71947;SDS011;63257;55.082;38.772;2023-06-19T00:41:50;6.53;;;3.40;;
71947;SDS011;63257;55.082;38.772;2023-06-19T00:44:18;8.80;;;3.47;;
71947;SDS011;63257;55.082;38.772;2023-06-19T00:46:44;8.25;;;3.22;;
71947;SDS011;63257;55.082;38.772;2023-06-19T00:49:10;7.50;;;3.42;;
71947;SDS011;63257;55.082;38.772;2023-06-19T00:51:37;9.23;;;2.90;;
71947;SDS011;63257;55.082;38.772;2023-06-19T00:54:03;7.57;;;3.22;;
71947;SDS011;63257;55.082;38.772;2023-06-19T00:56:30;8.53;;;3.37;;
71947;SDS011;63257;55.082;38.772;2023-06-19T00:58:57;7.90;;;3.72;;
71947;SDS011;63257;55.082;38.772;2023-06-19T01:01:24;7.13;;;3.60;;
71947;SDS011;63257;55.082;38.772;2023-06-19T01:03:50;7.03;;;3.15;;
71947;SDS011;63257;55.082;38.772;2023-06-19T01:06:20;8.38;;;3.20;;
71947;SDS011;63257;55.082;38.772;2023-06-19T01:11:29;8.07;;;3.50;;
71947;SDS011;63257;55.082;38.772;2023-06-19T01:14:50;6.40;;;3.42;;
71947;SDS011;63257;55.082;38.772;2023-06-19T01:16:51;8.13;;;3.70;;
71947;SDS011;63257;55.082;38.772;2023-06-19T01:19:18;8.68;;;3.30;;
71947;SDS011;63257;55.082;38.772;2023-06-19T01:21:46;10.33;;;3.40;;
71947;SDS011;63257;55.082;38.772;2023-06-19T01:24:13;8.82;;;3.30;;
71947;SDS011;63257;55.082;38.772;2023-06-19T01:26:39;7.13;;;3.40;;
71947;SDS011;63257;55.082;38.772;2023-06-19T01:29:06;8.35;;;3.70;;
71947;SDS011;63257;55.082;38.772;2023-06-19T01:31:37;6.23;;;3.30;;
71947;SDS011;63257;55.082;38.772;2023-06-19T01:34:23;7.13;;;3.70;;
71947;SDS011;63257;55.082;38.772;2023-06-19T01:36:52;6.97;;;3.58;;
71947;SDS011;63257;55.082;38.772;2023-06-19T01:39:22;5.95;;;3.25;;
71947;SDS011;63257;55.082;38.772;2023-06-19T01:41:49;7.57;;;3.50;;
71947;SDS011;63257;55.082;38.772;2023-06-19T01:44:17;9.60;;;3.20;;
71947;SDS011;63257;55.082;38.772;2023-06-19T01:46:48;7.40;;;3.72;;
71947;SDS011;63257;55.082;38.772;2023-06-19T01:49:15;7.93;;;3.65;;
71947;SDS011;63257;55.082;38.772;2023-06-19T01:51:41;11.07;;;3.60;;
71947;SDS011;63257;55.082;38.772;2023-06-19T01:54:07;7.90;;;3.60;;
71947;SDS011;63257;55.082;38.772;2023-06-19T01:56:34;7.10;;;3.50;;
71947;SDS011;63257;55.082;38.772;2023-06-19T01:59:01;7.13;;;3.53;;
71947;SDS011;63257;55.082;38.772;2023-06-19T02:01:27;7.18;;;3.35;;
71947;SDS011;63257;55.082;38.772;2023-06-19T02:03:53;7.03;;;3.53;;
71947;SDS011;63257;55.082;38.772;2023-06-19T02:06:18;6.78;;;3.63;;
71947;SDS011;63257;55.082;38.772;2023-06-19T02:08:47;6.28;;;3.50;;
71947;SDS011;63257;55.082;38.772;2023-06-19T02:11:13;6.47;;;3.67;;
71947;SDS011;63257;55.082;38.772;2023-06-19T02:13:40;7.53;;;3.40;;
71947;SDS011;63257;55.082;38.772;2023-06-19T02:16:06;7.75;;;3.75;;
71947;SDS011;63257;55.082;38.772;2023-06-19T02:18:32;7.22;;;3.45;;
71947;SDS011;63257;55.082;38.772;2023-06-19T02:20:58;7.25;;;3.50;;
71947;SDS011;63257;55.082;38.772;2023-06-19T02:23:24;8.30;;;3.80;;
71947;SDS011;63257;55.082;38.772;2023-06-19T02:25:50;7.18;;;3.95;;
71947;SDS011;63257;55.082;38.772;2023-06-19T02:28:17;7.32;;;3.60;;
71947;SDS011;63257;55.082;38.772;2023-06-19T02:30:43;7.37;;;3.77;;
71947;SDS011;63257;55.082;38.772;2023-06-19T02:33:09;9.00;;;3.88;;
71947;SDS011;63257;55.082;38.772;2023-06-19T02:35:34;9.57;;;3.35;;
71947;SDS011;63257;55.082;38.772;2023-06-19T02:38:00;9.17;;;3.80;;
71947;SDS011;63257;55.082;38.772;2023-06-19T02:40:26;6.35;;;3.58;;
71947;SDS011;63257;55.082;38.772;2023-06-19T02:42:53;7.28;;;3.70;;
71947;SDS011;63257;55.082;38.772;2023-06-19T02:45:19;7.87;;;3.87;;
71947;SDS011;63257;55.082;38.772;2023-06-19T02:47:47;9.75;;;4.10;;
71947;SDS011;63257;55.082;38.772;2023-06-19T02:50:13;7.97;;;4.93;;
71947;SDS011;63257;55.082;38.772;2023-06-19T02:52:39;11.40;;;5.03;;
71947;SDS011;63257;55.082;38.772;2023-06-19T02:55:05;13.10;;;4.55;;
71947;SDS011;63257;55.082;38.772;2023-06-19T02:57:33;9.50;;;4.60;;
71947;SDS011;63257;55.082;38.772;2023-06-19T02:59:59;11.00;;;4.22;;
71947;SDS011;63257;55.082;38.772;2023-06-19T03:02:26;8.15;;;3.80;;
71947;SDS011;63257;55.082;38.772;2023-06-19T03:04:52;9.23;;;4.17;;
71947;SDS011;63257;55.082;38.772;2023-06-19T03:07:18;9.65;;;3.97;;
71947;SDS011;63257;55.082;38.772;2023-06-19T03:09:44;9.23;;;3.80;;
71947;SDS011;63257;55.082;38.772;2023-06-19T03:12:10;8.35;;;3.25;;
71947;SDS011;63257;55.082;38.772;2023-06-19T03:14:37;8.68;;;3.50;;
71947;SDS011;63257;55.082;38.772;2023-06-19T03:17:03;8.27;;;3.57;;
71947;SDS011;63257;55.082;38.772;2023-06-19T03:19:30;11.13;;;3.47;;
71947;SDS011;63257;55.082;38.772;2023-06-19T03:21:57;10.40;;;3.30;;
71947;SDS011;63257;55.082;38.772;2023-06-19T03:24:23;9.57;;;3.70;;
71947;SDS011;63257;55.082;38.772;2023-06-19T03:26:52;10.68;;;3.50;;
71947;SDS011;63257;55.082;38.772;2023-06-19T03:29:18;8.50;;;3.20;;
71947;SDS011;63257;55.082;38.772;2023-06-19T03:32:03;5.85;;;3.30;;
71947;SDS011;63257;55.082;38.772;2023-06-19T03:34:31;5.97;;;3.17;;
71947;SDS011;63257;55.082;38.772;2023-06-19T03:36:58;8.70;;;3.22;;
71947;SDS011;63257;55.082;38.772;2023-06-19T03:39:24;8.63;;;3.30;;
71947;SDS011;63257;55.082;38.772;2023-06-19T03:41:53;8.23;;;3.70;;
71947;SDS011;63257;55.082;38.772;2023-06-19T03:44:18;7.23;;;3.67;;
71947;SDS011;63257;55.082;38.772;2023-06-19T03:46:44;8.68;;;3.45;;
71947;SDS011;63257;55.082;38.772;2023-06-19T03:49:11;9.37;;;4.00;;
71947;SDS011;63257;55.082;38.772;2023-06-19T03:51:37;10.25;;;3.67;;
71947;SDS011;63257;55.082;38.772;2023-06-19T03:54:04;9.23;;;4.00;;
71947;SDS011;63257;55.082;38.772;2023-06-19T03:56:29;9.05;;;3.38;;
71947;SDS011;63257;55.082;38.772;2023-06-19T03:58:55;8.13;;;3.10;;
71947;SDS011;63257;55.082;38.772;2023-06-19T04:01:21;8.52;;;3.40;;
71947;SDS011;63257;55.082;38.772;2023-06-19T04:03:48;7.07;;;3.33;;
71947;SDS011;63257;55.082;38.772;2023-06-19T04:06:14;9.23;;;3.90;;
71947;SDS011;63257;55.082;38.772;2023-06-19T04:08:40;10.65;;;4.47;;
71947;SDS011;63257;55.082;38.772;2023-06-19T04:11:06;14.80;;;5.53;;
71947;SDS011;63257;55.082;38.772;2023-06-19T04:13:31;10.50;;;4.43;;
71947;SDS011;63257;55.082;38.772;2023-06-19T04:15:57;9.05;;;4.40;;
71947;SDS011;63257;55.082;38.772;2023-06-19T04:18:23;10.80;;;4.40;;
71947;SDS011;63257;55.082;38.772;2023-06-19T04:20:49;14.73;;;5.10;;
71947;SDS011;63257;55.082;38.772;2023-06-19T04:23:14;11.13;;;4.33;;
71947;SDS011;63257;55.082;38.772;2023-06-19T04:25:41;7.72;;;3.92;;
71947;SDS011;63257;55.082;38.772;2023-06-19T04:28:06;8.00;;;3.45;;
71947;SDS011;63257;55.082;38.772;2023-06-19T04:30:32;6.20;;;3.70;;
71947;SDS011;63257;55.082;38.772;2023-06-19T04:32:58;7.85;;;3.83;;
71947;SDS011;63257;55.082;38.772;2023-06-19T04:35:24;9.15;;;3.30;;
71947;SDS011;63257;55.082;38.772;2023-06-19T04:37:50;7.60;;;3.27;;
71947;SDS011;63257;55.082;38.772;2023-06-19T04:40:16;7.38;;;3.60;;
71947;SDS011;63257;55.082;38.772;2023-06-19T04:42:42;7.85;;;3.70;;
71947;SDS011;63257;55.082;38.772;2023-06-19T04:45:08;9.00;;;3.67;;
71947;SDS011;63257;55.082;38.772;2023-06-19T04:47:34;7.65;;;3.65;;
71947;SDS011;63257;55.082;38.772;2023-06-19T04:50:01;7.15;;;3.78;;
71947;SDS011;63257;55.082;38.772;2023-06-19T04:52:26;7.67;;;3.83;;
71947;SDS011;63257;55.082;38.772;2023-06-19T04:54:52;9.38;;;4.10;;
71947;SDS011;63257;55.082;38.772;2023-06-19T04:57:18;8.27;;;4.22;;
71947;SDS011;63257;55.082;38.772;2023-06-19T04:59:44;9.57;;;3.88;;
71947;SDS011;63257;55.082;38.772;2023-06-19T05:02:10;9.95;;;3.20;;
71947;SDS011;63257;55.082;38.772;2023-06-19T05:04:36;10.07;;;3.88;;
71947;SDS011;63257;55.082;38.772;2023-06-19T05:07:02;8.00;;;3.93;;
71947;SDS011;63257;55.082;38.772;2023-06-19T05:09:28;8.75;;;4.07;;
71947;SDS011;63257;55.082;38.772;2023-06-19T05:11:55;6.70;;;3.38;;
71947;SDS011;63257;55.082;38.772;2023-06-19T05:14:22;6.85;;;3.10;;
71947;SDS011;63257;55.082;38.772;2023-06-19T05:16:48;9.43;;;4.10;;
71947;SDS011;63257;55.082;38.772;2023-06-19T05:19:14;10.45;;;3.63;;
71947;SDS011;63257;55.082;38.772;2023-06-19T05:21:39;7.20;;;3.07;;
71947;SDS011;63257;55.082;38.772;2023-06-19T05:24:05;10.18;;;3.55;;
71947;SDS011;63257;55.082;38.772;2023-06-19T05:26:31;14.07;;;6.40;;
71947;SDS011;63257;55.082;38.772;2023-06-19T05:28:57;8.00;;;2.90;;
71947;SDS011;63257;55.082;38.772;2023-06-19T05:31:23;7.65;;;3.40;;
71947;SDS011;63257;55.082;38.772;2023-06-19T05:33:49;7.17;;;3.27;;
71947;SDS011;63257;55.082;38.772;2023-06-19T05:36:14;8.85;;;3.95;;
71947;SDS011;63257;55.082;38.772;2023-06-19T05:38:40;8.50;;;3.33;;
71947;SDS011;63257;55.082;38.772;2023-06-19T05:41:06;7.35;;;3.30;;
71947;SDS011;63257;55.082;38.772;2023-06-19T05:43:32;7.27;;;3.30;;
71947;SDS011;63257;55.082;38.772;2023-06-19T05:45:58;6.47;;;3.05;;
71947;SDS011;63257;55.082;38.772;2023-06-19T05:48:28;7.03;;;3.08;;
71947;SDS011;63257;55.082;38.772;2023-06-19T05:50:54;10.75;;;5.93;;
71947;SDS011;63257;55.082;38.772;2023-06-19T05:53:20;8.20;;;3.63;;
71947;SDS011;63257;55.082;38.772;2023-06-19T05:55:46;9.00;;;3.00;;
71947;SDS011;63257;55.082;38.772;2023-06-19T05:58:12;6.93;;;3.20;;
71947;SDS011;63257;55.082;38.772;2023-06-19T06:00:38;5.88;;;2.80;;
71947;SDS011;63257;55.082;38.772;2023-06-19T06:03:04;8.95;;;3.67;;
71947;SDS011;63257;55.082;38.772;2023-06-19T06:05:29;9.40;;;3.20;;
71947;SDS011;63257;55.082;38.772;2023-06-19T06:07:55;7.38;;;3.00;;
71947;SDS011;63257;55.082;38.772;2023-06-19T06:10:22;9.63;;;4.22;;
71947;SDS011;63257;55.082;38.772;2023-06-19T06:12:48;7.30;;;2.80;;
71947;SDS011;63257;55.082;38.772;2023-06-19T06:15:15;6.35;;;2.47;;
71947;SDS011;63257;55.082;38.772;2023-06-19T06:17:41;5.25;;;2.78;;
71947;SDS011;63257;55.082;38.772;2023-06-19T06:20:07;11.32;;;3.00;;
71947;SDS011;63257;55.082;38.772;2023-06-19T06:22:41;10.25;;;3.67;;
71947;SDS011;63257;55.082;38.772;2023-06-19T06:25:08;4.60;;;2.30;;
71947;SDS011;63257;55.082;38.772;2023-06-19T06:27:35;6.70;;;3.58;;
71947;SDS011;63257;55.082;38.772;2023-06-19T06:30:01;6.32;;;3.30;;
71947;SDS011;63257;55.082;38.772;2023-06-19T06:32:34;7.00;;;3.03;;
71947;SDS011;63257;55.082;38.772;2023-06-19T06:35:00;6.10;;;3.00;;
71947;SDS011;63257;55.082;38.772;2023-06-19T06:37:30;8.77;;;2.63;;
71947;SDS011;63257;55.082;38.772;2023-06-19T06:39:56;5.47;;;2.85;;
71947;SDS011;63257;55.082;38.772;2023-06-19T06:42:22;6.97;;;2.70;;
71947;SDS011;63257;55.082;38.772;2023-06-19T06:44:48;5.10;;;2.60;;
71947;SDS011;63257;55.082;38.772;2023-06-19T06:47:14;6.10;;;3.03;;
71947;SDS011;63257;55.082;38.772;2023-06-19T06:49:40;6.03;;;2.60;;
71947;SDS011;63257;55.082;38.772;2023-06-19T06:52:06;6.72;;;2.95;;
71947;SDS011;63257;55.082;38.772;2023-06-19T06:54:32;8.68;;;2.83;;
71947;SDS011;63257;55.082;38.772;2023-06-19T06:56:58;7.73;;;3.00;;
71947;SDS011;63257;55.082;38.772;2023-06-19T06:59:26;5.55;;;2.50;;
71947;SDS011;63257;55.082;38.772;2023-06-19T07:01:55;4.57;;;2.40;;
71947;SDS011;63257;55.082;38.772;2023-06-19T07:04:22;5.22;;;2.65;;
71947;SDS011;63257;55.082;38.772;2023-06-19T07:06:48;7.23;;;2.70;;
71947;SDS011;63257;55.082;38.772;2023-06-19T07:09:15;5.15;;;2.70;;
71947;SDS011;63257;55.082;38.772;2023-06-19T07:11:41;6.00;;;2.47;;
71947;SDS011;63257;55.082;38.772;2023-06-19T07:14:07;4.65;;;2.53;;
71947;SDS011;63257;55.082;38.772;2023-06-19T07:16:33;5.07;;;2.87;;
71947;SDS011;63257;55.082;38.772;2023-06-19T07:18:59;4.43;;;2.65;;
71947;SDS011;63257;55.082;38.772;2023-06-19T07:21:25;5.43;;;3.17;;
71947;SDS011;63257;55.082;38.772;2023-06-19T07:23:53;6.30;;;2.90;;
71947;SDS011;63257;55.082;38.772;2023-06-19T07:26:20;7.05;;;2.72;;
71947;SDS011;63257;55.082;38.772;2023-06-19T07:28:46;7.75;;;3.03;;
71947;SDS011;63257;55.082;38.772;2023-06-19T07:31:11;5.53;;;2.65;;
71947;SDS011;63257;55.082;38.772;2023-06-19T07:33:37;6.87;;;3.10;;
71947;SDS011;63257;55.082;38.772;2023-06-19T07:36:04;6.50;;;3.10;;
71947;SDS011;63257;55.082;38.772;2023-06-19T07:38:30;7.05;;;3.00;;
71947;SDS011;63257;55.082;38.772;2023-06-19T07:40:56;8.00;;;2.90;;
71947;SDS011;63257;55.082;38.772;2023-06-19T07:43:22;4.28;;;2.40;;
71947;SDS011;63257;55.082;38.772;2023-06-19T07:45:48;5.30;;;2.72;;
71947;SDS011;63257;55.082;38.772;2023-06-19T07:48:15;6.53;;;2.70;;
71947;SDS011;63257;55.082;38.772;2023-06-19T07:50:42;5.63;;;2.80;;
71947;SDS011;63257;55.082;38.772;2023-06-19T07:53:08;5.45;;;3.05;;
71947;SDS011;63257;55.082;38.772;2023-06-19T07:55:34;6.82;;;3.20;;
71947;SDS011;63257;55.082;38.772;2023-06-19T07:58:03;5.30;;;2.90;;
71947;SDS011;63257;55.082;38.772;2023-06-19T08:00:28;5.13;;;2.70;;
71947;SDS011;63257;55.082;38.772;2023-06-19T08:02:54;6.25;;;3.00;;
71947;SDS011;63257;55.082;38.772;2023-06-19T08:05:20;5.43;;;2.80;;
71947;SDS011;63257;55.082;38.772;2023-06-19T08:07:46;5.25;;;2.70;;
71947;SDS011;63257;55.082;38.772;2023-06-19T08:10:12;5.80;;;2.70;;
71947;SDS011;63257;55.082;38.772;2023-06-19T08:12:38;8.00;;;3.13;;
71947;SDS011;63257;55.082;38.772;2023-06-19T08:15:04;7.10;;;2.97;;
71947;SDS011;63257;55.082;38.772;2023-06-19T08:17:32;6.30;;;2.88;;
71947;SDS011;63257;55.082;38.772;2023-06-19T08:19:58;5.40;;;2.73;;
71947;SDS011;63257;55.082;38.772;2023-06-19T08:22:24;7.35;;;2.80;;
71947;SDS011;63257;55.082;38.772;2023-06-19T08:24:50;5.93;;;2.90;;
71947;SDS011;63257;55.082;38.772;2023-06-19T08:27:17;5.18;;;2.83;;
71947;SDS011;63257;55.082;38.772;2023-06-19T08:29:43;6.97;;;2.90;;
71947;SDS011;63257;55.082;38.772;2023-06-19T08:32:09;5.20;;;2.57;;
71947;SDS011;63257;55.082;38.772;2023-06-19T08:34:35;5.95;;;2.83;;
71947;SDS011;63257;55.082;38.772;2023-06-19T08:37:19;6.68;;;2.97;;
71947;SDS011;63257;55.082;38.772;2023-06-19T08:39:45;7.82;;;3.35;;
71947;SDS011;63257;55.082;38.772;2023-06-19T08:42:11;6.90;;;3.25;;
71947;SDS011;63257;55.082;38.772;2023-06-19T08:44:38;5.78;;;3.28;;
71947;SDS011;63257;55.082;38.772;2023-06-19T08:47:04;6.22;;;3.20;;
71947;SDS011;63257;55.082;38.772;2023-06-19T08:49:31;6.57;;;3.53;;
71947;SDS011;63257;55.082;38.772;2023-06-19T08:51:59;5.15;;;3.00;;
71947;SDS011;63257;55.082;38.772;2023-06-19T08:54:25;5.85;;;3.00;;
71947;SDS011;63257;55.082;38.772;2023-06-19T08:56:51;5.93;;;2.80;;
71947;SDS011;63257;55.082;38.772;2023-06-19T08:59:19;4.70;;;2.90;;
71947;SDS011;63257;55.082;38.772;2023-06-19T09:01:51;5.80;;;3.70;;
71947;SDS011;63257;55.082;38.772;2023-06-19T09:04:24;6.15;;;3.25;;
71947;SDS011;63257;55.082;38.772;2023-06-19T09:07:02;6.18;;;2.90;;
71947;SDS011;63257;55.082;38.772;2023-06-19T09:09:43;6.03;;;3.20;;
71947;SDS011;63257;55.082;38.772;2023-06-19T09:12:29;5.43;;;2.80;;
71947;SDS011;63257;55.082;38.772;2023-06-19T09:15:00;5.80;;;3.33;;
71947;SDS011;63257;55.082;38.772;2023-06-19T09:17:26;5.82;;;3.00;;
71947;SDS011;63257;55.082;38.772;2023-06-19T09:19:56;6.10;;;3.38;;
71947;SDS011;63257;55.082;38.772;2023-06-19T09:22:21;5.40;;;3.00;;
71947;SDS011;63257;55.082;38.772;2023-06-19T09:24:48;5.82;;;3.20;;
71947;SDS011;63257;55.082;38.772;2023-06-19T09:27:15;5.35;;;2.95;;
71947;SDS011;63257;55.082;38.772;2023-06-19T09:29:46;6.78;;;2.80;;
71947;SDS011;63257;55.082;38.772;2023-06-19T09:34:47;5.40;;;2.80;;
71947;SDS011;63257;55.082;38.772;2023-06-19T09:37:23;4.82;;;2.63;;
71947;SDS011;63257;55.082;38.772;2023-06-19T09:39:54;5.75;;;2.60;;
71947;SDS011;63257;55.082;38.772;2023-06-19T09:42:27;5.88;;;2.88;;
71947;SDS011;63257;55.082;38.772;2023-06-19T09:44:58;5.73;;;3.17;;
71947;SDS011;63257;55.082;38.772;2023-06-19T09:50:14;5.95;;;3.00;;
71947;SDS011;63257;55.082;38.772;2023-06-19T09:52:44;5.88;;;2.78;;
71947;SDS011;63257;55.082;38.772;2023-06-19T09:55:11;4.95;;;2.80;;
71947;SDS011;63257;55.082;38.772;2023-06-19T09:57:39;6.97;;;3.00;;
71947;SDS011;63257;55.082;38.772;2023-06-19T10:00:06;7.03;;;2.90;;
71947;SDS011;63257;55.082;38.772;2023-06-19T10:02:45;5.68;;;3.30;;
71947;SDS011;63257;55.082;38.772;2023-06-19T10:05:12;5.60;;;3.20;;
71947;SDS011;63257;55.082;38.772;2023-06-19T10:07:44;6.85;;;3.40;;
71947;SDS011;63257;55.082;38.772;2023-06-19T10:10:11;5.23;;;3.10;;
71947;SDS011;63257;55.082;38.772;2023-06-19T10:12:48;6.18;;;3.00;;
71947;SDS011;63257;55.082;38.772;2023-06-19T10:15:32;7.10;;;3.30;;
71947;SDS011;63257;55.082;38.772;2023-06-19T10:18:03;7.18;;;3.70;;
71947;SDS011;63257;55.082;38.772;2023-06-19T10:20:31;5.67;;;3.07;;
71947;SDS011;63257;55.082;38.772;2023-06-19T10:22:59;5.78;;;3.22;;
71947;SDS011;63257;55.082;38.772;2023-06-19T10:25:31;5.97;;;3.30;;
71947;SDS011;63257;55.082;38.772;2023-06-19T10:27:59;6.35;;;3.08;;
71947;SDS011;63257;55.082;38.772;2023-06-19T10:30:26;5.82;;;3.30;;
71947;SDS011;63257;55.082;38.772;2023-06-19T10:32:52;7.07;;;3.20;;
71947;SDS011;63257;55.082;38.772;2023-06-19T10:35:19;5.45;;;2.90;;
71947;SDS011;63257;55.082;38.772;2023-06-19T10:37:49;7.35;;;3.55;;
71947;SDS011;63257;55.082;38.772;2023-06-19T10:40:16;5.95;;;3.30;;
71947;SDS011;63257;55.082;38.772;2023-06-19T10:42:43;7.55;;;3.08;;
71947;SDS011;63257;55.082;38.772;2023-06-19T10:45:09;7.13;;;2.90;;
71947;SDS011;63257;55.082;38.772;2023-06-19T10:47:38;5.95;;;3.25;;
71947;SDS011;63257;55.082;38.772;2023-06-19T10:50:14;5.65;;;3.10;;
71947;SDS011;63257;55.082;38.772;2023-06-19T10:52:44;5.68;;;3.08;;
71947;SDS011;63257;55.082;38.772;2023-06-19T10:55:11;6.22;;;3.03;;
71947;SDS011;63257;55.082;38.772;2023-06-19T10:57:38;5.83;;;2.90;;
71947;SDS011;63257;55.082;38.772;2023-06-19T11:00:05;5.70;;;2.90;;
71947;SDS011;63257;55.082;38.772;2023-06-19T11:02:37;6.78;;;3.47;;
71947;SDS011;63257;55.082;38.772;2023-06-19T11:05:05;6.32;;;3.30;;
71947;SDS011;63257;55.082;38.772;2023-06-19T11:07:32;5.57;;;3.20;;
71947;SDS011;63257;55.082;38.772;2023-06-19T11:09:58;7.43;;;3.40;;
71947;SDS011;63257;55.082;38.772;2023-06-19T11:12:23;5.60;;;3.47;;
71947;SDS011;63257;55.082;38.772;2023-06-19T11:14:49;5.88;;;3.55;;
71947;SDS011;63257;55.082;38.772;2023-06-19T11:17:16;6.32;;;3.60;;
71947;SDS011;63257;55.082;38.772;2023-06-19T11:19:52;6.72;;;3.50;;
71947;SDS011;63257;55.082;38.772;2023-06-19T11:22:17;7.28;;;4.00;;
71947;SDS011;63257;55.082;38.772;2023-06-19T11:24:44;6.47;;;3.97;;
71947;SDS011;63257;55.082;38.772;2023-06-19T11:27:21;7.28;;;4.13;;
71947;SDS011;63257;55.082;38.772;2023-06-19T11:29:56;7.65;;;4.20;;
71947;SDS011;63257;55.082;38.772;2023-06-19T11:32:31;6.93;;;4.18;;
71947;SDS011;63257;55.082;38.772;2023-06-19T11:35:04;7.00;;;4.30;;
71947;SDS011;63257;55.082;38.772;2023-06-19T11:37:33;6.73;;;4.33;;
71947;SDS011;63257;55.082;38.772;2023-06-19T11:40:00;7.05;;;4.90;;
71947;SDS011;63257;55.082;38.772;2023-06-19T11:42:28;7.82;;;4.43;;
71947;SDS011;63257;55.082;38.772;2023-06-19T11:45:01;8.55;;;4.20;;
71947;SDS011;63257;55.082;38.772;2023-06-19T11:47:33;5.20;;;3.80;;
71947;SDS011;63257;55.082;38.772;2023-06-19T11:49:59;6.80;;;4.37;;
71947;SDS011;63257;55.082;38.772;2023-06-19T11:52:26;5.60;;;4.15;;
71947;SDS011;63257;55.082;38.772;2023-06-19T11:54:52;9.18;;;4.50;;
71947;SDS011;63257;55.082;38.772;2023-06-19T11:57:17;7.67;;;5.10;;
71947;SDS011;63257;55.082;38.772;2023-06-19T11:59:43;6.40;;;4.57;;
71947;SDS011;63257;55.082;38.772;2023-06-19T12:02:09;6.73;;;4.50;;
71947;SDS011;63257;55.082;38.772;2023-06-19T12:04:35;6.97;;;4.57;;
71947;SDS011;63257;55.082;38.772;2023-06-19T12:07:01;6.35;;;4.45;;
71947;SDS011;63257;55.082;38.772;2023-06-19T12:09:30;7.90;;;4.95;;
71947;SDS011;63257;55.082;38.772;2023-06-19T12:11:57;7.68;;;4.80;;
71947;SDS011;63257;55.082;38.772;2023-06-19T12:14:23;10.20;;;5.00;;
71947;SDS011;63257;55.082;38.772;2023-06-19T12:16:50;7.32;;;5.22;;
71947;SDS011;63257;55.082;38.772;2023-06-19T12:19:16;7.20;;;5.30;;
71947;SDS011;63257;55.082;38.772;2023-06-19T12:21:42;8.07;;;4.88;;
71947;SDS011;63257;55.082;38.772;2023-06-19T12:24:08;8.03;;;5.07;;
71947;SDS011;63257;55.082;38.772;2023-06-19T12:26:34;10.15;;;5.40;;
71947;SDS011;63257;55.082;38.772;2023-06-19T12:29:05;8.48;;;4.85;;
71947;SDS011;63257;55.082;38.772;2023-06-19T12:31:34;9.00;;;4.80;;
71947;SDS011;63257;55.082;38.772;2023-06-19T12:34:02;6.40;;;4.30;;
71947;SDS011;63257;55.082;38.772;2023-06-19T12:36:28;9.27;;;4.87;;
71947;SDS011;63257;55.082;38.772;2023-06-19T12:38:56;6.38;;;4.90;;
71947;SDS011;63257;55.082;38.772;2023-06-19T12:41:22;8.05;;;4.90;;
71947;SDS011;63257;55.082;38.772;2023-06-19T12:43:48;6.67;;;4.90;;
71947;SDS011;63257;55.082;38.772;2023-06-19T12:46:14;7.90;;;5.20;;
71947;SDS011;63257;55.082;38.772;2023-06-19T12:48:43;7.25;;;5.00;;
71947;SDS011;63257;55.082;38.772;2023-06-19T12:51:09;6.03;;;4.45;;
71947;SDS011;63257;55.082;38.772;2023-06-19T12:53:34;5.40;;;4.30;;
71947;SDS011;63257;55.082;38.772;2023-06-19T12:56:00;6.07;;;4.82;;
71947;SDS011;63257;55.082;38.772;2023-06-19T12:58:26;6.30;;;4.95;;
71947;SDS011;63257;55.082;38.772;2023-06-19T13:00:53;5.90;;;4.87;;
71947;SDS011;63257;55.082;38.772;2023-06-19T13:03:19;5.93;;;4.82;;
71947;SDS011;63257;55.082;38.772;2023-06-19T13:05:48;6.90;;;4.75;;
71947;SDS011;63257;55.082;38.772;2023-06-19T13:08:15;7.90;;;4.50;;
71947;SDS011;63257;55.082;38.772;2023-06-19T13:10:41;6.13;;;4.60;;
71947;SDS011;63257;55.082;38.772;2023-06-19T13:13:06;7.60;;;5.28;;
71947;SDS011;63257;55.082;38.772;2023-06-19T13:15:32;8.95;;;5.00;;
71947;SDS011;63257;55.082;38.772;2023-06-19T13:17:59;6.93;;;5.30;;
71947;SDS011;63257;55.082;38.772;2023-06-19T13:20:25;8.48;;;5.20;;
71947;SDS011;63257;55.082;38.772;2023-06-19T13:22:51;6.03;;;4.55;;
71947;SDS011;63257;55.082;38.772;2023-06-19T13:25:18;6.70;;;5.07;;
71947;SDS011;63257;55.082;38.772;2023-06-19T13:27:45;7.32;;;5.15;;
71947;SDS011;63257;55.082;38.772;2023-06-19T13:30:11;6.72;;;4.97;;
71947;SDS011;63257;55.082;38.772;2023-06-19T13:32:38;8.77;;;5.23;;
71947;SDS011;63257;55.082;38.772;2023-06-19T13:35:06;8.93;;;5.95;;
71947;SDS011;63257;55.082;38.772;2023-06-19T13:37:33;9.25;;;5.40;;
71947;SDS011;63257;55.082;38.772;2023-06-19T13:40:00;9.88;;;5.47;;
71947;SDS011;63257;55.082;38.772;2023-06-19T13:42:30;8.43;;;5.18;;
71947;SDS011;63257;55.082;38.772;2023-06-19T13:44:56;8.25;;;5.10;;
71947;SDS011;63257;55.082;38.772;2023-06-19T13:47:22;5.75;;;4.10;;
71947;SDS011;63257;55.082;38.772;2023-06-19T13:49:51;7.20;;;4.43;;
71947;SDS011;63257;55.082;38.772;2023-06-19T13:52:17;7.45;;;4.97;;
71947;SDS011;63257;55.082;38.772;2023-06-19T13:54:43;7.27;;;5.20;;
71947;SDS011;63257;55.082;38.772;2023-06-19T13:57:09;10.07;;;6.10;;
71947;SDS011;63257;55.082;38.772;2023-06-19T13:59:35;9.50;;;6.00;;
71947;SDS011;63257;55.082;38.772;2023-06-19T14:02:00;7.40;;;5.13;;
71947;SDS011;63257;55.082;38.772;2023-06-19T14:04:26;7.77;;;5.13;;
71947;SDS011;63257;55.082;38.772;2023-06-19T14:06:52;7.57;;;4.55;;
71947;SDS011;63257;55.082;38.772;2023-06-19T14:09:20;6.78;;;4.70;;
71947;SDS011;63257;55.082;38.772;2023-06-19T14:11:47;6.40;;;4.57;;
71947;SDS011;63257;55.082;38.772;2023-06-19T14:14:12;7.60;;;5.20;;
71947;SDS011;63257;55.082;38.772;2023-06-19T14:16:38;7.55;;;4.68;;
71947;SDS011;63257;55.082;38.772;2023-06-19T14:19:04;8.85;;;5.22;;
71947;SDS011;63257;55.082;38.772;2023-06-19T14:21:30;7.37;;;4.60;;
71947;SDS011;63257;55.082;38.772;2023-06-19T14:23:56;7.50;;;5.05;;
71947;SDS011;63257;55.082;38.772;2023-06-19T14:26:22;7.00;;;4.40;;
71947;SDS011;63257;55.082;38.772;2023-06-19T14:28:48;5.87;;;4.77;;
71947;SDS011;63257;55.082;38.772;2023-06-19T14:31:14;6.13;;;4.85;;
71947;SDS011;63257;55.082;38.772;2023-06-19T14:33:40;8.90;;;4.18;;
71947;SDS011;63257;55.082;38.772;2023-06-19T14:36:06;7.43;;;4.45;;
71947;SDS011;63257;55.082;38.772;2023-06-19T14:38:32;7.67;;;4.67;;
71947;SDS011;63257;55.082;38.772;2023-06-19T14:41:02;5.72;;;4.50;;